Aurora, SD

7:30 PM CDT on July 23, 2016 (GMT -0500)
Aurora | | Change Station

Elev 1634 ft 44.29 °N, 96.68 °W | Updated 31 seconds ago

Clear
Clear
89.2 °F
Feels Like 98 °F
N
0.0
Wind Variable Wind from NW
Gusts 0.0 mph

Today
High -- | Low -- °F
--% Chance of Precip.
Yesterday
High -- | Low -- °F
Precip. -- in
Pressure 29.74 in
Visibility 10.0 miles
Clouds Clear
Heat Index 98 °F
Dew Point 74 °F
Humidity 61%
Rainfall 0.97 in
Snow Depth Not available.
6:05 AM 9:00 PM
Waning Gibbous, 81% visible
METAR KBKX 232356Z AUTO 19005KT 10SM CLR 32/24 A2974 RMK AO2 SLP070 6//// T03170239 10322 20278 56006 PNO $
Pressure 29.74 in
Visibility 10.0 miles
Clouds Clear
Heat Index 98 °F
Dew Point 74 °F
Humidity 61%
Rainfall 0.97 in
Snow Depth Not available.
6:05 AM 9:00 PM
Waning Gibbous, 81% visible
METAR KBKX 232356Z AUTO 19005KT 10SM CLR 32/24 A2974 RMK AO2 SLP070 6//// T03170239 10322 20278 56006 PNO $

10-Day Weather Forecast

Almanac

Astronomy

Jul. 23, 2016 Rise Set
Actual Time
Civil Twilight
Nautical Twilight
Astronomical Twilight
Moon
Length of Visible Light
Length of Day
Tomorrow will be .
, % of the Moon is Illuminated

Today's Extremes

State Highs State Lows

Community

WunderPhotos

Upload Photos

1,926,979 photos uploaded!

WunderBlog® & News

Nearby

Air Quality

  Air Quality AQ Index Pollutant
Not available.

Snow Depth

Station Depth Elevation

Earthquake Activity

City Distance Mag. Time & Date
Minimum magnitude displayed is 2.5.

Coastal Water Temperatures

Place Temperature

Stations

Nearby Weather Stations

Station Location Temp. Windchill Dew Point Humidity Wind Precip. Elev Updated Type
                   

Watches & Warnings

There are currently no watches in effect.